sensor_id;sensor_type;location;lat;lon;timestamp;pressure;altitude;pressure_sealevel;temperature;humidity
54994;BME280;40891;47.242;8.648;2023-02-28T00:00:10;96632.03;;;0.53;82.54
54994;BME280;40891;47.242;8.648;2023-02-28T00:02:41;96625.75;;;0.49;82.61
54994;BME280;40891;47.242;8.648;2023-02-28T00:05:07;96630.50;;;0.55;82.32
54994;BME280;40891;47.242;8.648;2023-02-28T00:07:33;96633.97;;;0.52;82.19
54994;BME280;40891;47.242;8.648;2023-02-28T00:09:59;96634.03;;;0.59;82.09
54994;BME280;40891;47.242;8.648;2023-02-28T00:12:25;96636.75;;;0.56;82.16
54994;BME280;40891;47.242;8.648;2023-02-28T00:14:51;96638.28;;;0.53;81.88
54994;BME280;40891;47.242;8.648;2023-02-28T00:17:16;96635.16;;;0.51;82.20
54994;BME280;40891;47.242;8.648;2023-02-28T00:19:43;96644.94;;;0.56;83.23
54994;BME280;40891;47.242;8.648;2023-02-28T00:22:08;96635.56;;;0.53;83.21
54994;BME280;40891;47.242;8.648;2023-02-28T00:24:34;96633.25;;;0.59;82.09
54994;BME280;40891;47.242;8.648;2023-02-28T00:26:59;96633.97;;;0.52;82.32
54994;BME280;40891;47.242;8.648;2023-02-28T00:29:24;96628.91;;;0.51;83.02
54994;BME280;40891;47.242;8.648;2023-02-28T00:31:49;96639.09;;;0.54;82.17
54994;BME280;40891;47.242;8.648;2023-02-28T00:34:15;96623.47;;;0.58;82.39
54994;BME280;40891;47.242;8.648;2023-02-28T00:36:40;96634.81;;;0.56;82.74
54994;BME280;40891;47.242;8.648;2023-02-28T00:39:10;96634.00;;;0.56;82.58
54994;BME280;40891;47.242;8.648;2023-02-28T00:41:36;96630.50;;;0.55;82.06
54994;BME280;40891;47.242;8.648;2023-02-28T00:44:01;96629.28;;;0.53;82.14
54994;BME280;40891;47.242;8.648;2023-02-28T00:46:26;96634.00;;;0.56;81.47
54994;BME280;40891;47.242;8.648;2023-02-28T00:48:51;96631.28;;;0.56;82.35
54994;BME280;40891;47.242;8.648;2023-02-28T00:51:17;96629.38;;;0.63;82.48
54994;BME280;40891;47.242;8.648;2023-02-28T00:53:42;96631.63;;;0.51;83.13
54994;BME280;40891;47.242;8.648;2023-02-28T00:56:08;96639.09;;;0.54;82.14
54994;BME280;40891;47.242;8.648;2023-02-28T00:58:33;96633.97;;;0.52;82.76
54994;BME280;40891;47.242;8.648;2023-02-28T01:00:58;96634.34;;;0.47;82.51
54994;BME280;40891;47.242;8.648;2023-02-28T01:03:24;96633.94;;;0.45;83.00
54994;BME280;40891;47.242;8.648;2023-02-28T01:05:50;96636.66;;;0.45;83.14
54994;BME280;40891;47.242;8.648;2023-02-28T01:08:15;96634.38;;;0.51;83.27
54994;BME280;40891;47.242;8.648;2023-02-28T01:10:41;96639.03;;;0.47;83.42
54994;BME280;40891;47.242;8.648;2023-02-28T01:13:07;96638.28;;;0.53;82.92
54994;BME280;40891;47.242;8.648;2023-02-28T01:15:33;96629.69;;;0.55;82.28
54994;BME280;40891;47.242;8.648;2023-02-28T01:17:58;96622.28;;;0.52;82.52
54994;BME280;40891;47.242;8.648;2023-02-28T01:20:24;96623.03;;;0.52;81.46
54994;BME280;40891;47.242;8.648;2023-02-28T01:22:49;96626.91;;;0.48;82.80
54994;BME280;40891;47.242;8.648;2023-02-28T01:25:14;96622.28;;;0.52;83.31
54994;BME280;40891;47.242;8.648;2023-02-28T01:27:40;96624.19;;;0.48;82.88
54994;BME280;40891;47.242;8.648;2023-02-28T01:30:07;96630.47;;;0.52;82.54
54994;BME280;40891;47.242;8.648;2023-02-28T01:32:32;96625.78;;;0.52;83.25
54994;BME280;40891;47.242;8.648;2023-02-28T01:34:58;96625.06;;;0.62;83.29
54994;BME280;40891;47.242;8.648;2023-02-28T01:37:23;96629.69;;;0.55;83.06
54994;BME280;40891;47.242;8.648;2023-02-28T01:39:49;96627.41;;;0.64;82.76
54994;BME280;40891;47.242;8.648;2023-02-28T01:42:14;96632.81;;;0.57;82.32
54994;BME280;40891;47.242;8.648;2023-02-28T01:44:59;96624.22;;;0.55;82.48
54994;BME280;40891;47.242;8.648;2023-02-28T01:47:36;96626.56;;;0.53;82.67
54994;BME280;40891;47.242;8.648;2023-02-28T01:50:06;96631.22;;;0.49;82.99
54994;BME280;40891;47.242;8.648;2023-02-28T01:52:32;96624.97;;;0.45;82.99
54994;BME280;40891;47.242;8.648;2023-02-28T01:55:00;96631.59;;;0.44;83.45
54994;BME280;40891;47.242;8.648;2023-02-28T01:57:50;96632.00;;;0.46;83.32
54994;BME280;40891;47.242;8.648;2023-02-28T02:00:20;96628.50;;;0.49;83.79
54994;BME280;40891;47.242;8.648;2023-02-28T02:02:49;96626.91;;;0.48;83.06
54994;BME280;40891;47.242;8.648;2023-02-28T02:05:19;96621.84;;;0.50;83.33
54994;BME280;40891;47.242;8.648;2023-02-28T02:07:46;96616.81;;;0.52;82.61
54994;BME280;40891;47.242;8.648;2023-02-28T02:10:17;96616.41;;;0.57;82.60
54994;BME280;40891;47.242;8.648;2023-02-28T02:23:49;96601.66;;;0.68;82.02
54994;BME280;40891;47.242;8.648;2023-02-28T02:32:46;96592.94;;;0.49;83.50
54994;BME280;40891;47.242;8.648;2023-02-28T02:38:14;96599.22;;;0.49;83.09
54994;BME280;40891;47.242;8.648;2023-02-28T02:41:04;96601.50;;;0.44;83.51
54994;BME280;40891;47.242;8.648;2023-02-28T02:43:49;96592.56;;;0.47;83.57
54994;BME280;40891;47.242;8.648;2023-02-28T02:46:33;96591.38;;;0.48;84.10
54994;BME280;40891;47.242;8.648;2023-02-28T02:49:00;96598.03;;;0.47;84.18
54994;BME280;40891;47.242;8.648;2023-02-28T02:51:30;96596.03;;;0.44;84.21
54994;BME280;40891;47.242;8.648;2023-02-28T02:54:14;96590.56;;;0.44;83.75
54994;BME280;40891;47.242;8.648;2023-02-28T02:56:44;96592.91;;;0.45;83.59
54994;BME280;40891;47.242;8.648;2023-02-28T02:59:13;96592.13;;;0.41;84.00
54994;BME280;40891;47.242;8.648;2023-02-28T03:01:46;96593.00;;;0.56;84.04
54994;BME280;40891;47.242;8.648;2023-02-28T03:04:18;96597.66;;;0.52;84.08
54994;BME280;40891;47.242;8.648;2023-02-28T03:06:44;96597.63;;;0.45;83.65
54994;BME280;40891;47.242;8.648;2023-02-28T03:09:09;96592.91;;;0.42;84.19
54994;BME280;40891;47.242;8.648;2023-02-28T03:11:35;96595.25;;;0.43;83.99
54994;BME280;40891;47.242;8.648;2023-02-28T03:25:54;96596.00;;;0.40;83.77
54994;BME280;40891;47.242;8.648;2023-02-28T03:28:31;96593.69;;;0.42;84.05
54994;BME280;40891;47.242;8.648;2023-02-28T03:31:03;96594.47;;;0.43;84.26
54994;BME280;40891;47.242;8.648;2023-02-28T03:36:53;96594.13;;;0.51;83.85
54994;BME280;40891;47.242;8.648;2023-02-28T03:39:24;96589.00;;;0.43;84.26
54994;BME280;40891;47.242;8.648;2023-02-28T03:41:57;96591.72;;;0.43;84.01
54994;BME280;40891;47.242;8.648;2023-02-28T03:44:29;96587.81;;;0.40;83.75
54994;BME280;40891;47.242;8.648;2023-02-28T03:47:00;96587.88;;;0.51;83.78
54994;BME280;40891;47.242;8.648;2023-02-28T03:49:32;96587.44;;;0.42;83.36
54994;BME280;40891;47.242;8.648;2023-02-28T03:52:02;96590.53;;;0.40;84.16
54994;BME280;40891;47.242;8.648;2023-02-28T03:54:32;96592.16;;;0.45;83.05
54994;BME280;40891;47.242;8.648;2023-02-28T03:57:05;96594.44;;;0.39;83.60
54994;BME280;40891;47.242;8.648;2023-02-28T03:59:47;96599.16;;;0.46;83.18
54994;BME280;40891;47.242;8.648;2023-02-28T04:02:16;96601.50;;;0.44;83.63
54994;BME280;40891;47.242;8.648;2023-02-28T04:04:41;96606.19;;;0.43;82.71
54994;BME280;40891;47.242;8.648;2023-02-28T04:07:14;96605.00;;;0.41;83.09
54994;BME280;40891;47.242;8.648;2023-02-28T04:09:39;96606.19;;;0.43;82.66
54994;BME280;40891;47.242;8.648;2023-02-28T04:12:05;96603.44;;;0.43;82.84
54994;BME280;40891;47.242;8.648;2023-02-28T04:14:30;96607.78;;;0.44;83.15
54994;BME280;40891;47.242;8.648;2023-02-28T04:16:56;96607.78;;;0.48;83.03
54994;BME280;40891;47.242;8.648;2023-02-28T04:19:21;96612.06;;;0.42;83.61
54994;BME280;40891;47.242;8.648;2023-02-28T04:21:49;96605.38;;;0.39;83.20
54994;BME280;40891;47.242;8.648;2023-02-28T04:24:17;96614.88;;;0.56;82.45
54994;BME280;40891;47.242;8.648;2023-02-28T04:26:45;96617.94;;;0.47;82.80
54994;BME280;40891;47.242;8.648;2023-02-28T04:29:13;96616.03;;;0.51;82.41
54994;BME280;40891;47.242;8.648;2023-02-28T04:31:39;96623.78;;;0.42;82.90
54994;BME280;40891;47.242;8.648;2023-02-28T04:34:05;96622.22;;;0.45;82.35
54994;BME280;40891;47.242;8.648;2023-02-28T04:36:30;96628.06;;;0.40;82.41
54994;BME280;40891;47.242;8.648;2023-02-28T04:38:56;96626.16;;;0.51;82.13
54994;BME280;40891;47.242;8.648;2023-02-28T04:41:22;96619.91;;;0.47;82.12
54994;BME280;40891;47.242;8.648;2023-02-28T04:43:47;96620.22;;;0.35;82.53
54994;BME280;40891;47.242;8.648;2023-02-28T04:46:13;96617.94;;;0.47;82.61
54994;BME280;40891;47.242;8.648;2023-02-28T04:48:39;96628.06;;;0.40;82.83
54994;BME280;40891;47.242;8.648;2023-02-28T04:51:08;96616.78;;;0.48;82.46
54994;BME280;40891;47.242;8.648;2023-02-28T04:53:36;96615.97;;;0.48;82.92
54994;BME280;40891;47.242;8.648;2023-02-28T04:56:02;96627.31;;;0.46;81.91
54994;BME280;40891;47.242;8.648;2023-02-28T04:58:28;96630.78;;;0.40;82.43
54994;BME280;40891;47.242;8.648;2023-02-28T05:00:53;96623.34;;;0.37;83.15
54994;BME280;40891;47.242;8.648;2023-02-28T05:03:20;96636.25;;;0.40;82.19
54994;BME280;40891;47.242;8.648;2023-02-28T05:05:48;96636.66;;;0.42;82.49
54994;BME280;40891;47.242;8.648;2023-02-28T05:08:13;96642.13;;;0.42;83.08
54994;BME280;40891;47.242;8.648;2023-02-28T05:10:39;96645.25;;;0.44;82.23
54994;BME280;40891;47.242;8.648;2023-02-28T05:13:04;96647.59;;;0.42;81.84
54994;BME280;40891;47.242;8.648;2023-02-28T05:15:30;96645.28;;;0.47;81.62
54994;BME280;40891;47.242;8.648;2023-02-28T05:17:55;96640.59;;;0.44;82.34
54994;BME280;40891;47.242;8.648;2023-02-28T05:20:20;96644.88;;;0.45;82.17
54994;BME280;40891;47.242;8.648;2023-02-28T05:22:46;96656.91;;;0.34;82.59
54994;BME280;40891;47.242;8.648;2023-02-28T05:25:16;96648.38;;;0.42;82.10
54994;BME280;40891;47.242;8.648;2023-02-28T05:27:42;96646.47;;;0.50;81.41
54994;BME280;40891;47.242;8.648;2023-02-28T05:30:08;96649.56;;;0.45;80.79
54994;BME280;40891;47.242;8.648;2023-02-28T05:32:36;96653.81;;;0.39;81.40
54994;BME280;40891;47.242;8.648;2023-02-28T05:35:02;96659.38;;;0.49;82.10
54994;BME280;40891;47.242;8.648;2023-02-28T05:37:27;96660.91;;;0.47;82.11
54994;BME280;40891;47.242;8.648;2023-02-28T05:39:53;96657.78;;;0.45;81.88
54994;BME280;40891;47.242;8.648;2023-02-28T05:42:18;96651.53;;;0.48;80.85
54994;BME280;40891;47.242;8.648;2023-02-28T05:44:43;96655.03;;;0.45;81.43
54994;BME280;40891;47.242;8.648;2023-02-28T05:47:09;96650.75;;;0.47;81.07
54994;BME280;40891;47.242;8.648;2023-02-28T05:49:34;96648.03;;;0.51;80.87
54994;BME280;40891;47.242;8.648;2023-02-28T05:51:59;96656.16;;;0.40;81.16
54994;BME280;40891;47.242;8.648;2023-02-28T05:54:25;96649.53;;;0.41;81.85
54994;BME280;40891;47.242;8.648;2023-02-28T05:56:50;96658.50;;;0.38;82.45
54994;BME280;40891;47.242;8.648;2023-02-28T05:59:15;96660.81;;;0.36;82.03
54994;BME280;40891;47.242;8.648;2023-02-28T06:01:42;96660.03;;;0.36;82.78
54994;BME280;40891;47.242;8.648;2023-02-28T06:04:15;96662.78;;;0.36;82.29
54994;BME280;40891;47.242;8.648;2023-02-28T06:06:46;96657.31;;;0.36;82.54
54994;BME280;40891;47.242;8.648;2023-02-28T06:09:12;96659.28;;;0.35;81.56
54994;BME280;40891;47.242;8.648;2023-02-28T06:11:37;96674.50;;;0.36;82.51
54994;BME280;40891;47.242;8.648;2023-02-28T06:14:03;96675.28;;;0.37;82.06
54994;BME280;40891;47.242;8.648;2023-02-28T06:16:29;96673.31;;;0.34;82.35
54994;BME280;40891;47.242;8.648;2023-02-28T06:18:57;96675.69;;;0.39;82.27
54994;BME280;40891;47.242;8.648;2023-02-28T06:21:23;96672.22;;;0.45;82.09
54994;BME280;40891;47.242;8.648;2023-02-28T06:23:49;96685.84;;;0.38;82.32
54994;BME280;40891;47.242;8.648;2023-02-28T06:26:14;96686.22;;;0.37;82.28
54994;BME280;40891;47.242;8.648;2023-02-28T06:28:40;96684.28;;;0.41;82.59
54994;BME280;40891;47.242;8.648;2023-02-28T06:31:10;96688.63;;;0.42;82.26
54994;BME280;40891;47.242;8.648;2023-02-28T06:33:37;96694.88;;;0.46;82.13
54994;BME280;40891;47.242;8.648;2023-02-28T06:36:03;96690.94;;;0.40;82.43
54994;BME280;40891;47.242;8.648;2023-02-28T06:38:28;96694.84;;;0.39;82.22
54994;BME280;40891;47.242;8.648;2023-02-28T06:40:55;96704.63;;;0.40;82.07
54994;BME280;40891;47.242;8.648;2023-02-28T06:43:20;96703.38;;;0.34;81.85
54994;BME280;40891;47.242;8.648;2023-02-28T06:45:46;96710.53;;;0.49;82.22
54994;BME280;40891;47.242;8.648;2023-02-28T06:48:11;96705.44;;;0.47;81.53
54994;BME280;40891;47.242;8.648;2023-02-28T06:50:36;96710.16;;;0.50;81.66
54994;BME280;40891;47.242;8.648;2023-02-28T06:53:02;96710.53;;;0.49;81.37
54994;BME280;40891;47.242;8.648;2023-02-28T06:55:27;96717.63;;;0.57;80.95
54994;BME280;40891;47.242;8.648;2023-02-28T06:57:53;96712.94;;;0.57;80.89
54994;BME280;40891;47.242;8.648;2023-02-28T07:00:20;96718.84;;;0.63;80.51
54994;BME280;40891;47.242;8.648;2023-02-28T07:02:46;96720.41;;;0.64;80.33
54994;BME280;40891;47.242;8.648;2023-02-28T07:05:12;96722.00;;;0.65;80.83
54994;BME280;40891;47.242;8.648;2023-02-28T07:07:38;96727.41;;;0.58;80.70
54994;BME280;40891;47.242;8.648;2023-02-28T07:10:06;96726.38;;;0.77;80.81
54994;BME280;40891;47.242;8.648;2023-02-28T07:12:31;96727.50;;;0.68;80.89
54994;BME280;40891;47.242;8.648;2023-02-28T07:14:56;96722.03;;;0.72;80.99
54994;BME280;40891;47.242;8.648;2023-02-28T07:17:22;96721.69;;;0.81;80.41
54994;BME280;40891;47.242;8.648;2023-02-28T07:19:47;96722.47;;;0.81;79.59
54994;BME280;40891;47.242;8.648;2023-02-28T07:22:12;96718.22;;;0.84;79.56
54994;BME280;40891;47.242;8.648;2023-02-28T07:24:38;96722.53;;;0.88;80.02
54994;BME280;40891;47.242;8.648;2023-02-28T07:27:03;96719.91;;;1.06;79.40
54994;BME280;40891;47.242;8.648;2023-02-28T07:29:29;96715.19;;;0.99;79.01
54994;BME280;40891;47.242;8.648;2023-02-28T07:31:54;96717.91;;;0.96;78.75
54994;BME280;40891;47.242;8.648;2023-02-28T07:34:20;96713.22;;;0.96;78.88
54994;BME280;40891;47.242;8.648;2023-02-28T07:36:46;96713.22;;;0.96;79.17
54994;BME280;40891;47.242;8.648;2023-02-28T07:39:11;96722.56;;;0.95;78.97
54994;BME280;40891;47.242;8.648;2023-02-28T07:41:36;96726.09;;;0.96;79.19
54994;BME280;40891;47.242;8.648;2023-02-28T07:44:09;96729.28;;;1.01;78.76
54994;BME280;40891;47.242;8.648;2023-02-28T07:46:34;96727.72;;;1.07;77.77
54994;BME280;40891;47.242;8.648;2023-02-28T07:49:00;96733.59;;;1.09;78.20
54994;BME280;40891;47.242;8.648;2023-02-28T07:51:30;96729.00;;;1.20;77.85
54994;BME280;40891;47.242;8.648;2023-02-28T07:53:56;96725.06;;;1.21;77.02
54994;BME280;40891;47.242;8.648;2023-02-28T07:56:22;96726.25;;;1.24;77.11
54994;BME280;40891;47.242;8.648;2023-02-28T07:58:47;96739.19;;;1.30;77.32
54994;BME280;40891;47.242;8.648;2023-02-28T08:01:13;96736.50;;;1.34;77.37
54994;BME280;40891;47.242;8.648;2023-02-28T08:03:39;96732.22;;;1.44;77.22
54994;BME280;40891;47.242;8.648;2023-02-28T08:06:06;96730.28;;;1.44;76.53
54994;BME280;40891;47.242;8.648;2023-02-28T08:08:32;96726.44;;;1.63;75.27
54994;BME280;40891;47.242;8.648;2023-02-28T08:11:01;96737.81;;;1.72;76.02
54994;BME280;40891;47.242;8.648;2023-02-28T08:13:28;96729.25;;;1.84;74.52
54994;BME280;40891;47.242;8.648;2023-02-28T08:15:54;96731.25;;;1.97;73.73
54994;BME280;40891;47.242;8.648;2023-02-28T08:18:20;96724.97;;;1.97;73.95
54994;BME280;40891;47.242;8.648;2023-02-28T08:20:45;96739.03;;;1.92;74.06
54994;BME280;40891;47.242;8.648;2023-02-28T08:23:10;96735.53;;;1.91;73.95
54994;BME280;40891;47.242;8.648;2023-02-28T08:25:36;96734.34;;;1.92;74.11
54994;BME280;40891;47.242;8.648;2023-02-28T08:28:01;96735.53;;;1.88;74.37
54994;BME280;40891;47.242;8.648;2023-02-28T08:30:26;96738.28;;;1.95;73.77
54994;BME280;40891;47.242;8.648;2023-02-28T08:32:52;96730.81;;;1.85;74.31
54994;BME280;40891;47.242;8.648;2023-02-28T08:35:17;96740.56;;;1.72;74.62
54994;BME280;40891;47.242;8.648;2023-02-28T08:37:42;96730.81;;;1.85;75.26
54994;BME280;40891;47.242;8.648;2023-02-28T08:40:08;96731.22;;;1.87;74.65
54994;BME280;40891;47.242;8.648;2023-02-28T08:42:34;96741.75;;;1.85;73.75
54994;BME280;40891;47.242;8.648;2023-02-28T08:44:59;96742.19;;;1.97;74.40
54994;BME280;40891;47.242;8.648;2023-02-28T08:47:25;96730.47;;;2.08;73.18
54994;BME280;40891;47.242;8.648;2023-02-28T08:49:50;96738.69;;;2.00;73.44
54994;BME280;40891;47.242;8.648;2023-02-28T08:52:15;96741.81;;;1.99;73.02
54994;BME280;40891;47.242;8.648;2023-02-28T08:54:40;96739.50;;;2.19;72.33
54994;BME280;40891;47.242;8.648;2023-02-28T08:57:06;96746.16;;;2.14;72.41
54994;BME280;40891;47.242;8.648;2023-02-28T08:59:31;96749.69;;;2.18;71.44
54994;BME280;40891;47.242;8.648;2023-02-28T09:01:57;96749.69;;;2.18;71.52
54994;BME280;40891;47.242;8.648;2023-02-28T09:04:22;96742.25;;;2.15;71.30
54994;BME280;40891;47.242;8.648;2023-02-28T09:06:48;96733.63;;;2.17;71.39
54994;BME280;40891;47.242;8.648;2023-02-28T09:09:14;96741.09;;;2.27;72.28
54994;BME280;40891;47.242;8.648;2023-02-28T09:11:39;96740.69;;;2.35;71.21
54994;BME280;40891;47.242;8.648;2023-02-28T09:14:04;96743.84;;;2.41;71.72
54994;BME280;40891;47.242;8.648;2023-02-28T09:16:31;96744.66;;;2.55;71.17
54994;BME280;40891;47.242;8.648;2023-02-28T09:18:57;96745.41;;;2.49;70.28
54994;BME280;40891;47.242;8.648;2023-02-28T09:21:23;96749.34;;;2.55;70.30
54994;BME280;40891;47.242;8.648;2023-02-28T09:23:49;96742.28;;;2.79;69.25
54994;BME280;40891;47.242;8.648;2023-02-28T09:26:19;96741.13;;;2.69;68.42
54994;BME280;40891;47.242;8.648;2023-02-28T09:28:45;96752.47;;;2.74;68.97
54994;BME280;40891;47.242;8.648;2023-02-28T09:31:19;96756.78;;;2.47;68.98
54994;BME280;40891;47.242;8.648;2023-02-28T09:33:46;96754.44;;;2.49;69.53
54994;BME280;40891;47.242;8.648;2023-02-28T09:36:11;96759.94;;;2.53;69.34
54994;BME280;40891;47.242;8.648;2023-02-28T09:38:37;96765.41;;;2.42;69.89
54994;BME280;40891;47.242;8.648;2023-02-28T09:41:08;96769.72;;;2.43;70.62
54994;BME280;40891;47.242;8.648;2023-02-28T09:43:40;96766.97;;;2.43;70.79
54994;BME280;40891;47.242;8.648;2023-02-28T09:48:46;96772.06;;;2.41;69.93
54994;BME280;40891;47.242;8.648;2023-02-28T09:53:53;96765.03;;;2.72;70.51
54994;BME280;40891;47.242;8.648;2023-02-28T09:56:26;96774.44;;;2.67;69.50
54994;BME280;40891;47.242;8.648;2023-02-28T09:59:05;96779.91;;;2.67;69.60
54994;BME280;40891;47.242;8.648;2023-02-28T10:01:57;96787.38;;;2.70;70.07
54994;BME280;40891;47.242;8.648;2023-02-28T10:04:57;96781.50;;;2.68;69.46
54994;BME280;40891;47.242;8.648;2023-02-28T10:07:54;96777.97;;;2.79;68.49
54994;BME280;40891;47.242;8.648;2023-02-28T10:10:43;96786.19;;;2.89;69.32
54994;BME280;40891;47.242;8.648;2023-02-28T10:16:11;96780.31;;;3.08;68.16
54994;BME280;40891;47.242;8.648;2023-02-28T10:18:52;96791.66;;;3.28;67.45
54994;BME280;40891;47.242;8.648;2023-02-28T10:21:37;96791.28;;;3.15;67.65
54994;BME280;40891;47.242;8.648;2023-02-28T10:24:32;96788.16;;;3.24;67.33
54994;BME280;40891;47.242;8.648;2023-02-28T10:27:06;96793.66;;;3.24;67.97
54994;BME280;40891;47.242;8.648;2023-02-28T10:29:40;96792.03;;;3.44;66.88
54994;BME280;40891;47.242;8.648;2023-02-28T10:32:11;96783.72;;;3.65;66.32
54994;BME280;40891;47.242;8.648;2023-02-28T10:34:37;96786.88;;;3.60;66.70
54994;BME280;40891;47.242;8.648;2023-02-28T10:37:03;96788.00;;;3.80;65.52
54994;BME280;40891;47.242;8.648;2023-02-28T10:42:05;96800.94;;;3.83;65.19
54994;BME280;40891;47.242;8.648;2023-02-28T10:44:32;96785.66;;;3.72;64.93
54994;BME280;40891;47.242;8.648;2023-02-28T10:46:58;96786.78;;;3.88;64.58
54994;BME280;40891;47.242;8.648;2023-02-28T10:49:26;96789.13;;;3.97;64.52
54994;BME280;40891;47.242;8.648;2023-02-28T10:51:56;96788.34;;;3.86;65.03
54994;BME280;40891;47.242;8.648;2023-02-28T10:54:35;96787.94;;;3.94;65.14
54994;BME280;40891;47.242;8.648;2023-02-28T10:57:15;96791.03;;;4.03;64.29
54994;BME280;40891;47.242;8.648;2023-02-28T10:59:41;96791.09;;;3.89;64.73
54994;BME280;40891;47.242;8.648;2023-02-28T11:02:34;96794.63;;;3.97;64.48
54994;BME280;40891;47.242;8.648;2023-02-28T11:05:00;96801.66;;;4.01;64.49
54994;BME280;40891;47.242;8.648;2023-02-28T11:07:26;96795.00;;;3.99;64.44
54994;BME280;40891;47.242;8.648;2023-02-28T11:09:54;96798.53;;;3.99;63.98
54994;BME280;40891;47.242;8.648;2023-02-28T11:12:37;96804.06;;;3.92;64.12
54994;BME280;40891;47.242;8.648;2023-02-28T11:15:24;96807.16;;;3.98;64.43
54994;BME280;40891;47.242;8.648;2023-02-28T11:17:57;96810.31;;;3.96;65.15
54994;BME280;40891;47.242;8.648;2023-02-28T11:20:25;96805.63;;;3.97;65.02
54994;BME280;40891;47.242;8.648;2023-02-28T11:22:52;96803.59;;;4.11;63.45
54994;BME280;40891;47.242;8.648;2023-02-28T11:25:27;96809.47;;;4.13;63.28
54994;BME280;40891;47.242;8.648;2023-02-28T11:27:57;96810.63;;;4.12;63.55
54994;BME280;40891;47.242;8.648;2023-02-28T11:32:57;96798.00;;;4.26;63.53
54994;BME280;40891;47.242;8.648;2023-02-28T11:35:33;96807.44;;;4.25;63.09
54994;BME280;40891;47.242;8.648;2023-02-28T11:38:02;96801.91;;;4.32;62.61
54994;BME280;40891;47.242;8.648;2023-02-28T11:40:46;96799.53;;;4.37;62.66
54994;BME280;40891;47.242;8.648;2023-02-28T11:43:27;96790.94;;;4.28;62.70
54994;BME280;40891;47.242;8.648;2023-02-28T11:46:05;96788.91;;;4.36;62.57
54994;BME280;40891;47.242;8.648;2023-02-28T11:51:24;96782.84;;;4.62;62.42
54994;BME280;40891;47.242;8.648;2023-02-28T11:54:12;96776.94;;;4.60;61.57
54994;BME280;40891;47.242;8.648;2023-02-28T11:56:47;96783.94;;;4.71;61.30
54994;BME280;40891;47.242;8.648;2023-02-28T11:59:27;96779.69;;;4.60;61.89
54994;BME280;40891;47.242;8.648;2023-02-28T12:02:20;96778.91;;;4.63;61.33
54994;BME280;40891;47.242;8.648;2023-02-28T12:04:53;96775.25;;;4.76;61.20
54994;BME280;40891;47.242;8.648;2023-02-28T12:10:22;96774.84;;;4.78;61.17
54994;BME280;40891;47.242;8.648;2023-02-28T12:13:04;96778.16;;;4.59;61.81
54994;BME280;40891;47.242;8.648;2023-02-28T12:15:49;96775.28;;;4.73;61.26
54994;BME280;40891;47.242;8.648;2023-02-28T12:18:25;96783.47;;;4.83;60.99
54994;BME280;40891;47.242;8.648;2023-02-28T12:26:39;96774.28;;;4.97;61.13
54994;BME280;40891;47.242;8.648;2023-02-28T12:29:41;96777.03;;;5.01;60.62
54994;BME280;40891;47.242;8.648;2023-02-28T12:32:32;96780.22;;;4.96;60.61
54994;BME280;40891;47.242;8.648;2023-02-28T12:35:12;96775.94;;;4.88;60.51
54994;BME280;40891;47.242;8.648;2023-02-28T12:37:47;96773.66;;;4.82;61.04
54994;BME280;40891;47.242;8.648;2023-02-28T12:40:19;96767.25;;;4.96;61.18
54994;BME280;40891;47.242;8.648;2023-02-28T12:42:49;96764.06;;;4.98;61.54
54994;BME280;40891;47.242;8.648;2023-02-28T12:45:21;96768.09;;;4.90;61.88
54994;BME280;40891;47.242;8.648;2023-02-28T12:47:56;96759.53;;;4.77;62.48
54994;BME280;40891;47.242;8.648;2023-02-28T12:50:22;96761.44;;;4.83;61.37
54994;BME280;40891;47.242;8.648;2023-02-28T12:53:09;96766.91;;;4.87;60.92
54994;BME280;40891;47.242;8.648;2023-02-28T12:55:52;96767.47;;;4.68;61.70
54994;BME280;40891;47.242;8.648;2023-02-28T12:58:36;96769.69;;;4.87;61.37
54994;BME280;40891;47.242;8.648;2023-02-28T13:09:14;96774.22;;;4.56;62.18
54994;BME280;40891;47.242;8.648;2023-02-28T13:11:42;96779.44;;;4.40;61.52
54994;BME280;40891;47.242;8.648;2023-02-28T13:14:24;96773.84;;;4.54;62.81
54994;BME280;40891;47.242;8.648;2023-02-28T13:19:25;96769.59;;;4.43;63.21
54994;BME280;40891;47.242;8.648;2023-02-28T13:21:51;96770.41;;;4.40;63.11
54994;BME280;40891;47.242;8.648;2023-02-28T13:27:21;96780.00;;;4.10;64.15
54994;BME280;40891;47.242;8.648;2023-02-28T13:29:51;96771.75;;;4.14;63.93
54994;BME280;40891;47.242;8.648;2023-02-28T13:32:30;96769.78;;;4.11;63.10
54994;BME280;40891;47.242;8.648;2023-02-28T13:47:39;96775.28;;;4.07;64.91
54994;BME280;40891;47.242;8.648;2023-02-28T13:55:46;96778.44;;;4.06;64.49
54994;BME280;40891;47.242;8.648;2023-02-28T14:06:51;96786.34;;;3.93;65.16
54994;BME280;40891;47.242;8.648;2023-02-28T14:09:27;96782.13;;;3.78;64.65
54994;BME280;40891;47.242;8.648;2023-02-28T14:11:53;96785.66;;;3.75;65.22
54994;BME280;40891;47.242;8.648;2023-02-28T14:17:00;96789.59;;;3.71;65.58
54994;BME280;40891;47.242;8.648;2023-02-28T14:19:29;96796.28;;;3.66;65.36
54994;BME280;40891;47.242;8.648;2023-02-28T14:25:05;96791.59;;;3.60;66.66
54994;BME280;40891;47.242;8.648;2023-02-28T14:27:40;96797.50;;;3.62;67.23
54994;BME280;40891;47.242;8.648;2023-02-28T14:33:31;96799.41;;;3.65;66.51
54994;BME280;40891;47.242;8.648;2023-02-28T14:36:17;96802.56;;;3.60;65.90
54994;BME280;40891;47.242;8.648;2023-02-28T14:38:53;96809.31;;;3.44;66.51
54994;BME280;40891;47.242;8.648;2023-02-28T14:41:29;96812.84;;;3.38;66.62
54994;BME280;40891;47.242;8.648;2023-02-28T14:43:59;96819.13;;;3.42;66.68
54994;BME280;40891;47.242;8.648;2023-02-28T14:46:44;96814.38;;;3.46;67.31
54994;BME280;40891;47.242;8.648;2023-02-28T14:49:31;96820.69;;;3.39;66.20
54994;BME280;40891;47.242;8.648;2023-02-28T14:54:36;96821.88;;;3.35;67.52
54994;BME280;40891;47.242;8.648;2023-02-28T14:57:02;96821.09;;;3.20;67.47
54994;BME280;40891;47.242;8.648;2023-02-28T14:59:30;96808.94;;;3.18;67.74
54994;BME280;40891;47.242;8.648;2023-02-28T15:02:21;96823.84;;;3.20;68.56
54994;BME280;40891;47.242;8.648;2023-02-28T15:05:01;96818.38;;;3.24;68.45
54994;BME280;40891;47.242;8.648;2023-02-28T15:07:36;96820.72;;;3.25;68.96
54994;BME280;40891;47.242;8.648;2023-02-28T15:10:23;96823.88;;;3.24;68.11
54994;BME280;40891;47.242;8.648;2023-02-28T15:13:00;96816.78;;;3.23;68.68
54994;BME280;40891;47.242;8.648;2023-02-28T15:15:50;96823.88;;;3.17;69.83